createdAt,value
2019-06-27T00:00:19.574Z,100.00
2019-06-27T00:02:47.884Z,100.00
2019-06-27T00:05:16.187Z,100.00
2019-06-27T00:07:44.503Z,100.00
2019-06-27T00:10:12.896Z,100.00
2019-06-27T00:12:41.291Z,100.00
2019-06-27T00:15:09.709Z,100.00
2019-06-27T00:17:38.090Z,100.00
2019-06-27T00:20:06.535Z,100.00
2019-06-27T00:22:34.848Z,100.00
2019-06-27T00:25:03.538Z,100.00
2019-06-27T00:27:31.880Z,100.00
2019-06-27T00:30:00.239Z,100.00
2019-06-27T00:32:28.733Z,100.00
2019-06-27T00:34:57.029Z,100.00
2019-06-27T00:37:25.445Z,100.00
2019-06-27T00:39:53.736Z,100.00
2019-06-27T00:42:22.044Z,100.00
2019-06-27T00:44:50.360Z,100.00
2019-06-27T00:47:18.705Z,100.00
2019-06-27T00:49:47.125Z,100.00
2019-06-27T00:52:15.456Z,100.00
2019-06-27T00:54:43.817Z,100.00
2019-06-27T00:57:14.591Z,100.00
2019-06-27T00:59:42.179Z,100.00
2019-06-27T01:02:10.540Z,100.00
2019-06-27T01:04:38.832Z,100.00
2019-06-27T01:07:07.136Z,100.00
2019-06-27T01:09:35.440Z,100.00
2019-06-27T01:12:03.780Z,100.00
2019-06-27T01:14:32.610Z,100.00
2019-06-27T01:17:00.936Z,100.00
2019-06-27T01:19:29.371Z,100.00
2019-06-27T01:21:57.668Z,100.00
2019-06-27T01:24:26.081Z,100.00
2019-06-27T01:26:54.369Z,100.00
2019-06-27T01:29:22.773Z,100.00
2019-06-27T01:31:51.086Z,100.00
2019-06-27T01:34:19.375Z,100.00
2019-06-27T01:36:47.679Z,99.89
2019-06-27T01:39:15.969Z,99.90
2019-06-27T01:41:44.347Z,99.50
2019-06-27T01:44:30.256Z,99.39
2019-06-27T01:46:58.958Z,99.10
2019-06-27T01:49:27.311Z,98.93
2019-06-27T01:51:55.714Z,98.57
2019-06-27T01:54:24.095Z,98.83
2019-06-27T01:56:52.561Z,97.40
2019-06-27T01:59:20.853Z,97.70
2019-06-27T02:01:49.157Z,97.92
2019-06-27T02:04:17.527Z,97.57
2019-06-27T02:06:45.805Z,97.36
2019-06-27T02:09:14.261Z,97.35
2019-06-27T02:11:42.669Z,97.27
2019-06-27T02:14:10.951Z,97.22
2019-06-27T02:16:39.317Z,97.31
2019-06-27T02:19:07.710Z,97.70
2019-06-27T02:21:36.050Z,98.08
2019-06-27T02:24:04.480Z,97.96
2019-06-27T02:26:33.013Z,98.26
2019-06-27T02:29:01.391Z,98.29
2019-06-27T02:31:29.799Z,98.20
2019-06-27T02:33:58.075Z,98.29
2019-06-27T02:36:26.360Z,98.79
2019-06-27T02:38:54.836Z,98.69
2019-06-27T02:41:23.185Z,99.13
2019-06-27T02:43:51.465Z,99.87
2019-06-27T02:46:19.973Z,99.76
2019-06-27T02:48:48.318Z,100.00
2019-06-27T02:51:16.720Z,100.00
2019-06-27T02:53:45.173Z,100.00
2019-06-27T02:56:13.477Z,100.00
2019-06-27T02:58:41.993Z,100.00
2019-06-27T03:01:10.321Z,100.00
2019-06-27T03:03:38.704Z,100.00
2019-06-27T03:06:07.010Z,100.00
2019-06-27T03:08:35.313Z,100.00
2019-06-27T03:11:03.678Z,100.00
2019-06-27T03:13:31.973Z,100.00
2019-06-27T03:16:00.794Z,100.00
2019-06-27T03:18:29.217Z,100.00
2019-06-27T03:20:57.693Z,100.00
2019-06-27T03:23:26.039Z,100.00
2019-06-27T03:25:54.423Z,100.00
2019-06-27T03:28:22.731Z,100.00
2019-06-27T03:30:51.016Z,100.00
2019-06-27T03:33:19.351Z,100.00
2019-06-27T03:35:47.706Z,100.00
2019-06-27T03:38:16.100Z,100.00
2019-06-27T03:40:44.418Z,100.00
2019-06-27T03:43:13.023Z,100.00
2019-06-27T03:45:41.485Z,100.00
2019-06-27T03:48:09.804Z,100.00
2019-06-27T03:50:38.142Z,100.00
2019-06-27T03:53:06.463Z,100.00
2019-06-27T03:55:34.765Z,100.00
2019-06-27T03:58:03.133Z,100.00
2019-06-27T04:00:34.697Z,100.00
2019-06-27T04:03:03.141Z,100.00
2019-06-27T04:05:31.460Z,100.00
2019-06-27T04:07:59.863Z,100.00
2019-06-27T04:10:28.199Z,100.00
2019-06-27T04:12:56.681Z,100.00
2019-06-27T04:15:25.173Z,100.00
2019-06-27T04:17:53.458Z,100.00
2019-06-27T04:20:21.742Z,100.00
2019-06-27T04:22:50.135Z,100.00
2019-06-27T04:25:18.718Z,100.00
2019-06-27T04:27:47.075Z,100.00
2019-06-27T04:30:15.366Z,100.00
2019-06-27T04:32:43.804Z,100.00
2019-06-27T04:35:12.094Z,100.00
2019-06-27T04:37:40.388Z,100.00
2019-06-27T04:40:08.792Z,100.00
2019-06-27T04:42:37.238Z,100.00
2019-06-27T04:45:07.132Z,100.00
2019-06-27T04:47:35.438Z,100.00
2019-06-27T04:50:03.991Z,100.00
2019-06-27T04:52:32.325Z,100.00
2019-06-27T04:55:03.825Z,100.00
2019-06-27T04:57:32.416Z,100.00
2019-06-27T05:00:00.957Z,100.00
2019-06-27T05:02:30.939Z,99.81
2019-06-27T05:05:02.502Z,100.00
2019-06-27T05:07:30.879Z,99.59
2019-06-27T05:09:59.166Z,99.09
2019-06-27T05:12:28.017Z,98.97
2019-06-27T05:14:56.308Z,98.92
2019-06-27T05:17:24.781Z,98.24
2019-06-27T05:19:53.189Z,97.80
2019-06-27T05:22:21.497Z,98.47
2019-06-27T05:24:49.883Z,98.86
2019-06-27T05:27:18.137Z,98.16
2019-06-27T05:29:46.589Z,98.41
2019-06-27T05:32:14.936Z,97.90
2019-06-27T05:34:43.335Z,98.28
2019-06-27T05:37:11.647Z,98.01
2019-06-27T05:39:40.896Z,98.07
2019-06-27T05:42:09.383Z,97.13
2019-06-27T05:44:37.667Z,97.09
2019-06-27T05:47:06.006Z,96.91
2019-06-27T05:49:34.624Z,96.62
2019-06-27T05:52:03.039Z,95.60
2019-06-27T05:54:31.362Z,95.23
2019-06-27T05:56:59.762Z,95.69
2019-06-27T05:59:28.214Z,95.58
2019-06-27T06:01:56.720Z,95.67
2019-06-27T06:04:25.011Z,95.73
2019-06-27T06:06:53.349Z,95.81
2019-06-27T06:09:21.638Z,95.28
2019-06-27T06:11:50.091Z,93.46
2019-06-27T06:14:18.413Z,92.96
2019-06-27T06:16:48.340Z,93.63
2019-06-27T06:19:16.642Z,93.23
2019-06-27T06:21:45.018Z,93.85
2019-06-27T06:24:13.295Z,93.34
2019-06-27T06:26:41.761Z,93.46
2019-06-27T06:29:10.329Z,93.65
2019-06-27T06:31:38.637Z,94.06
2019-06-27T06:34:07.115Z,93.54
2019-06-27T06:36:35.400Z,91.53
2019-06-27T06:39:05.735Z,91.10
2019-06-27T06:41:34.035Z,91.07
2019-06-27T06:44:03.198Z,90.00
2019-06-27T06:46:31.578Z,90.89
2019-06-27T06:48:59.892Z,90.80
2019-06-27T06:51:28.183Z,91.02
2019-06-27T06:53:56.523Z,91.24
2019-06-27T06:56:24.807Z,91.32
2019-06-27T06:58:53.159Z,91.54
2019-06-27T07:01:22.372Z,90.91
2019-06-27T07:03:50.682Z,89.74
2019-06-27T07:06:18.981Z,90.13
2019-06-27T07:08:47.396Z,89.14
2019-06-27T07:11:15.871Z,88.60
2019-06-27T07:13:46.109Z,89.16
2019-06-27T07:16:14.236Z,88.35
2019-06-27T07:18:42.820Z,89.04
2019-06-27T07:21:11.122Z,88.71
2019-06-27T07:23:39.435Z,88.85
2019-06-27T07:26:07.709Z,88.91
2019-06-27T07:28:36.052Z,88.24
2019-06-27T07:31:17.451Z,88.39
2019-06-27T07:33:34.527Z,87.01
2019-06-27T07:36:02.866Z,88.10
2019-06-27T07:38:31.157Z,85.85
2019-06-27T07:40:59.508Z,86.78
2019-06-27T07:43:27.813Z,87.31
2019-06-27T07:45:56.124Z,85.76
2019-06-27T07:48:24.401Z,86.81
2019-06-27T07:50:52.805Z,87.47
2019-06-27T07:53:21.111Z,86.68
2019-06-27T07:55:49.384Z,86.80
2019-06-27T07:58:17.762Z,87.17
2019-06-27T08:00:46.218Z,88.19
2019-06-27T08:03:14.498Z,87.11
2019-06-27T08:05:42.830Z,87.87
2019-06-27T08:08:11.629Z,87.93
2019-06-27T08:10:40.021Z,87.80
2019-06-27T08:13:08.337Z,88.22
2019-06-27T08:15:36.617Z,87.45
2019-06-27T08:18:05.075Z,88.08
2019-06-27T08:20:33.373Z,87.74
2019-06-27T08:23:01.637Z,87.09
2019-06-27T08:25:30.109Z,87.80
2019-06-27T08:27:58.454Z,86.76
2019-06-27T08:30:27.077Z,86.48
2019-06-27T08:32:55.414Z,87.70
2019-06-27T08:35:23.833Z,85.89
2019-06-27T08:37:52.186Z,86.85
2019-06-27T08:40:20.554Z,86.59
2019-06-27T08:42:48.964Z,86.97
2019-06-27T08:45:17.315Z,87.24
2019-06-27T08:47:45.728Z,86.29
2019-06-27T08:50:14.083Z,87.58
2019-06-27T08:52:43.065Z,88.10
2019-06-27T08:55:11.474Z,87.19
2019-06-27T08:57:39.830Z,88.13
2019-06-27T09:00:08.200Z,85.92
2019-06-27T09:02:36.543Z,86.04
2019-06-27T09:05:06.807Z,86.78
2019-06-27T09:07:35.187Z,87.63
2019-06-27T09:10:04.802Z,85.58
2019-06-27T09:12:33.101Z,85.01
2019-06-27T09:15:01.549Z,84.75
2019-06-27T09:17:29.898Z,84.64
2019-06-27T09:19:58.305Z,85.62
2019-06-27T09:22:26.598Z,84.62
2019-06-27T09:24:54.991Z,85.14
2019-06-27T09:27:23.432Z,85.12
2019-06-27T09:29:51.860Z,84.83
2019-06-27T09:32:25.641Z,84.59
2019-06-27T09:34:50.219Z,85.26
2019-06-27T09:37:18.556Z,85.65
2019-06-27T09:39:46.972Z,86.20
2019-06-27T09:42:15.349Z,85.79
2019-06-27T09:44:43.723Z,85.83
2019-06-27T09:47:12.008Z,85.18
2019-06-27T09:49:40.347Z,86.19
2019-06-27T09:52:08.779Z,85.29
2019-06-27T09:54:37.062Z,86.23
2019-06-27T09:57:05.832Z,85.76
2019-06-27T09:59:34.118Z,87.40
2019-06-27T10:02:02.492Z,86.42
2019-06-27T10:04:30.793Z,86.61
2019-06-27T10:06:59.088Z,87.08
2019-06-27T10:09:27.388Z,87.34
2019-06-27T10:11:55.778Z,89.01
2019-06-27T10:14:24.097Z,90.06
2019-06-27T10:16:53.179Z,90.16
2019-06-27T10:19:21.550Z,90.14
2019-06-27T10:21:49.932Z,90.57
2019-06-27T10:24:18.358Z,91.03
2019-06-27T10:26:48.533Z,90.86
2019-06-27T10:29:16.906Z,88.15
2019-06-27T10:31:46.854Z,88.67
2019-06-27T10:34:15.310Z,88.53
2019-06-27T10:36:43.713Z,88.41
2019-06-27T10:39:12.218Z,88.75
2019-06-27T10:41:40.543Z,88.26
2019-06-27T10:44:08.963Z,89.68
2019-06-27T10:46:37.246Z,89.99
2019-06-27T10:49:05.578Z,89.69
2019-06-27T10:51:33.982Z,87.47
2019-06-27T10:54:02.284Z,88.74
2019-06-27T10:56:30.632Z,89.52
2019-06-27T10:58:59.000Z,87.77
2019-06-27T11:01:27.288Z,89.00
2019-06-27T11:03:55.622Z,90.45
2019-06-27T11:06:23.909Z,89.98
2019-06-27T11:08:52.202Z,90.18
2019-06-27T11:11:28.319Z,90.37
2019-06-27T11:14:09.561Z,88.67
2019-06-27T11:16:33.468Z,89.09
2019-06-27T11:19:01.753Z,86.60
2019-06-27T11:21:30.907Z,87.22
2019-06-27T11:23:59.312Z,86.67
2019-06-27T11:26:27.597Z,85.96
2019-06-27T11:28:55.873Z,86.70
2019-06-27T11:31:24.188Z,88.24
2019-06-27T11:33:52.529Z,87.31
2019-06-27T11:36:20.856Z,88.15
2019-06-27T11:38:49.161Z,89.33
2019-06-27T11:41:17.434Z,89.31
2019-06-27T11:43:45.780Z,88.41
2019-06-27T11:46:14.273Z,87.28
2019-06-27T11:48:42.557Z,83.17
2019-06-27T11:51:10.832Z,83.24
2019-06-27T11:53:39.275Z,82.71
2019-06-27T11:56:07.584Z,83.39
2019-06-27T11:58:35.863Z,83.62
2019-06-27T12:01:04.169Z,83.18
2019-06-27T12:03:45.026Z,83.29
2019-06-27T12:06:02.610Z,83.35
2019-06-27T12:08:31.224Z,84.14
2019-06-27T12:10:59.520Z,82.41
2019-06-27T12:13:27.851Z,82.32
2019-06-27T12:15:56.132Z,82.02
2019-06-27T12:18:25.392Z,85.00
2019-06-27T12:20:53.769Z,84.71
2019-06-27T12:23:22.171Z,84.76
2019-06-27T12:25:50.997Z,85.34
2019-06-27T12:28:19.378Z,85.73
2019-06-27T12:30:47.799Z,82.79
2019-06-27T12:33:16.250Z,82.71
2019-06-27T12:35:44.563Z,82.91
2019-06-27T12:38:12.847Z,83.61
2019-06-27T12:40:41.976Z,81.42
2019-06-27T12:43:13.534Z,82.88
2019-06-27T12:45:40.263Z,83.24
2019-06-27T12:48:08.591Z,83.89
2019-06-27T12:50:37.078Z,84.52
2019-06-27T12:53:05.423Z,85.40
2019-06-27T12:55:33.802Z,84.92
2019-06-27T12:58:02.178Z,83.95
2019-06-27T13:00:30.575Z,83.95
2019-06-27T13:02:58.911Z,83.81
2019-06-27T13:05:27.356Z,82.78
2019-06-27T13:07:55.680Z,84.36
2019-06-27T13:10:24.172Z,84.75
2019-06-27T13:12:52.481Z,85.02
2019-06-27T13:15:20.829Z,84.99
2019-06-27T13:17:49.134Z,84.24
2019-06-27T13:20:17.407Z,83.11
2019-06-27T13:22:45.741Z,83.76
2019-06-27T13:25:14.022Z,82.64
2019-06-27T13:27:42.425Z,82.13
2019-06-27T13:30:10.809Z,81.44
2019-06-27T13:32:39.178Z,81.85
2019-06-27T13:35:07.609Z,80.14
2019-06-27T13:37:35.929Z,78.91
2019-06-27T13:40:05.759Z,77.08
2019-06-27T13:42:38.048Z,77.42
2019-06-27T13:45:05.918Z,78.37
2019-06-27T13:47:34.358Z,79.53
2019-06-27T13:50:03.034Z,79.41
2019-06-27T13:52:31.325Z,77.58
2019-06-27T13:54:59.669Z,75.74
2019-06-27T13:57:28.102Z,76.58
2019-06-27T13:59:56.399Z,75.47
2019-06-27T14:02:24.706Z,75.85
2019-06-27T14:04:57.567Z,73.45
2019-06-27T14:07:24.169Z,72.51
2019-06-27T14:09:56.910Z,73.22
2019-06-27T14:12:22.629Z,70.35
2019-06-27T14:14:59.639Z,71.25
2019-06-27T14:17:21.060Z,69.99
2019-06-27T14:19:50.853Z,70.81
2019-06-27T14:22:32.790Z,69.65
2019-06-27T14:24:49.374Z,70.98
2019-06-27T14:27:17.842Z,71.92
2019-06-27T14:29:46.243Z,71.81
2019-06-27T14:32:14.643Z,70.33
2019-06-27T14:34:42.928Z,69.96
2019-06-27T14:37:11.212Z,69.67
2019-06-27T14:39:39.588Z,70.06
2019-06-27T14:42:08.119Z,69.78
2019-06-27T14:44:36.560Z,68.85
2019-06-27T14:47:04.927Z,67.69
2019-06-27T14:49:33.201Z,69.13
2019-06-27T14:52:04.678Z,68.71
2019-06-27T14:54:33.071Z,68.49
2019-06-27T14:57:01.436Z,66.41
2019-06-27T14:59:29.872Z,66.72
2019-06-27T15:01:58.323Z,64.94
2019-06-27T15:04:29.691Z,65.53
2019-06-27T15:06:58.565Z,64.76
2019-06-27T15:09:26.990Z,66.62
2019-06-27T15:11:55.360Z,63.51
2019-06-27T15:14:23.655Z,62.15
2019-06-27T15:16:52.227Z,63.05
2019-06-27T15:19:20.567Z,64.16
2019-06-27T15:21:48.880Z,63.61
2019-06-27T15:24:17.187Z,63.73
2019-06-27T15:26:45.641Z,64.11
2019-06-27T15:29:14.308Z,65.56
2019-06-27T15:31:42.594Z,67.49
2019-06-27T15:34:11.020Z,67.60
2019-06-27T15:36:39.531Z,68.63
2019-06-27T15:39:11.743Z,68.08
2019-06-27T15:41:37.936Z,69.12
2019-06-27T15:44:06.264Z,70.67
2019-06-27T15:46:34.622Z,70.15
2019-06-27T15:49:03.042Z,69.93
2019-06-27T15:51:31.316Z,71.00
2019-06-27T15:53:59.959Z,72.41
2019-06-27T15:56:28.293Z,72.89
2019-06-27T15:58:56.776Z,73.74
2019-06-27T16:01:25.881Z,73.31
2019-06-27T16:03:54.548Z,71.39
2019-06-27T16:06:22.926Z,72.29
2019-06-27T16:08:51.315Z,72.03
2019-06-27T16:11:19.595Z,73.65
2019-06-27T16:13:48.832Z,74.35
2019-06-27T16:16:17.107Z,73.31
2019-06-27T16:18:45.387Z,72.65
2019-06-27T16:21:13.871Z,73.41
2019-06-27T16:23:42.305Z,75.45
2019-06-27T16:26:10.585Z,74.93
2019-06-27T16:28:38.894Z,76.63
2019-06-27T16:31:07.320Z,74.03
2019-06-27T16:33:35.955Z,73.76
2019-06-27T16:36:04.237Z,75.54
2019-06-27T16:38:32.533Z,74.65
2019-06-27T16:41:00.971Z,75.40
2019-06-27T16:43:29.347Z,76.17
2019-06-27T16:45:57.797Z,76.02
2019-06-27T16:48:26.089Z,75.93
2019-06-27T16:50:54.783Z,75.27
2019-06-27T16:53:23.199Z,76.14
2019-06-27T16:55:51.682Z,76.49
2019-06-27T16:58:19.966Z,76.27
2019-06-27T17:00:48.303Z,76.53
2019-06-27T17:03:16.707Z,77.10
2019-06-27T17:05:45.060Z,78.27
2019-06-27T17:08:13.344Z,77.82
2019-06-27T17:10:41.851Z,78.04
2019-06-27T17:13:10.132Z,77.11
2019-06-27T17:15:38.449Z,76.97
2019-06-27T17:18:06.903Z,77.67
2019-06-27T17:20:35.229Z,77.99
2019-06-27T17:23:05.566Z,77.71
2019-06-27T17:25:33.670Z,77.50
2019-06-27T17:28:02.324Z,78.57
2019-06-27T17:30:30.701Z,79.26
2019-06-27T17:32:59.013Z,79.97
2019-06-27T17:35:27.383Z,79.78
2019-06-27T17:37:56.364Z,80.75
2019-06-27T17:40:24.820Z,81.23
2019-06-27T17:42:53.198Z,81.94
2019-06-27T17:45:21.519Z,80.58
2019-06-27T17:47:49.830Z,80.85
2019-06-27T17:50:18.133Z,81.22
2019-06-27T17:52:46.518Z,81.06
2019-06-27T17:55:14.948Z,81.42
2019-06-27T17:57:46.156Z,81.83
2019-06-27T18:00:13.300Z,82.56
2019-06-27T18:02:41.571Z,83.05
2019-06-27T18:05:11.570Z,81.77
2019-06-27T18:07:39.895Z,80.58
2019-06-27T18:10:08.852Z,81.63
2019-06-27T18:12:37.236Z,80.88
2019-06-27T18:15:09.301Z,81.85
2019-06-27T18:17:37.806Z,81.55
2019-06-27T18:20:08.539Z,80.93
2019-06-27T18:22:36.921Z,81.12
2019-06-27T18:25:05.881Z,82.17
2019-06-27T18:27:34.159Z,82.69
2019-06-27T18:30:02.590Z,84.47
2019-06-27T18:32:30.953Z,84.70
2019-06-27T18:34:59.301Z,84.31
2019-06-27T18:37:30.043Z,84.70
2019-06-27T18:39:59.839Z,85.05
2019-06-27T18:42:28.084Z,85.62
2019-06-27T18:44:57.199Z,86.07
2019-06-27T18:47:26.521Z,86.38
2019-06-27T18:49:54.940Z,85.75
2019-06-27T18:52:23.488Z,85.52
2019-06-27T18:54:51.961Z,86.76
2019-06-27T18:57:20.451Z,86.11
2019-06-27T18:59:48.868Z,86.46
2019-06-27T19:02:20.211Z,86.31
2019-06-27T19:04:48.619Z,87.04
2019-06-27T19:07:17.174Z,87.17
2019-06-27T19:09:50.520Z,87.81
2019-06-27T19:12:19.400Z,87.70
2019-06-27T19:14:48.256Z,87.89
2019-06-27T19:17:18.570Z,87.89
2019-06-27T19:19:48.707Z,88.12
2019-06-27T19:22:22.557Z,88.25
2019-06-27T19:24:53.486Z,88.95
2019-06-27T19:27:22.142Z,88.85
2019-06-27T19:29:53.508Z,89.20
2019-06-27T19:32:22.061Z,89.44
2019-06-27T19:34:53.043Z,89.55
2019-06-27T19:37:21.595Z,89.98
2019-06-27T19:39:50.005Z,89.94
2019-06-27T19:42:18.604Z,89.84
2019-06-27T19:44:47.159Z,90.69
2019-06-27T19:47:15.709Z,90.57
2019-06-27T19:49:44.287Z,90.45
2019-06-27T19:52:12.762Z,90.15
2019-06-27T19:54:41.238Z,90.41
2019-06-27T19:57:09.861Z,90.26
2019-06-27T19:59:38.405Z,90.81
2019-06-27T20:02:07.272Z,91.13
2019-06-27T20:04:35.854Z,91.38
2019-06-27T20:07:04.343Z,92.24
2019-06-27T20:09:32.886Z,91.95
2019-06-27T20:12:01.217Z,91.70
2019-06-27T20:14:29.624Z,91.12
2019-06-27T20:16:58.111Z,91.44
2019-06-27T20:19:26.484Z,91.44
2019-06-27T20:21:54.801Z,91.30
2019-06-27T20:24:23.236Z,91.33
2019-06-27T20:26:51.694Z,91.91
2019-06-27T20:29:20.166Z,91.63
2019-06-27T20:31:48.611Z,91.77
2019-06-27T20:34:16.980Z,92.48
2019-06-27T20:36:45.298Z,92.59
2019-06-27T20:39:13.697Z,92.69
2019-06-27T20:41:42.098Z,93.06
2019-06-27T20:44:10.542Z,93.47
2019-06-27T20:46:38.859Z,93.48
2019-06-27T20:49:07.171Z,93.43
2019-06-27T20:51:35.557Z,93.82
2019-06-27T20:54:03.989Z,93.92
2019-06-27T20:56:32.272Z,94.85
2019-06-27T20:59:00.550Z,94.56
2019-06-27T21:01:31.578Z,94.81
2019-06-27T21:03:59.215Z,94.61
2019-06-27T21:06:29.171Z,95.18
2019-06-27T21:08:57.577Z,95.20
2019-06-27T21:11:25.986Z,94.95
2019-06-27T21:13:54.356Z,94.69
2019-06-27T21:16:22.773Z,94.75
2019-06-27T21:18:52.194Z,94.58
2019-06-27T21:21:20.946Z,94.74
2019-06-27T21:23:49.615Z,94.74
2019-06-27T21:26:17.892Z,94.55
2019-06-27T21:28:46.279Z,94.66
2019-06-27T21:31:14.649Z,94.67
2019-06-27T21:33:42.946Z,94.85
2019-06-27T21:36:11.289Z,95.11
2019-06-27T21:38:39.607Z,94.90
2019-06-27T21:41:08.012Z,95.12
2019-06-27T21:43:36.361Z,94.94
2019-06-27T21:46:04.824Z,95.19
2019-06-27T21:48:33.124Z,95.66
2019-06-27T21:51:01.454Z,95.51
2019-06-27T21:53:29.765Z,95.71
2019-06-27T21:55:58.076Z,95.45
2019-06-27T21:58:26.378Z,95.88
2019-06-27T22:00:54.891Z,96.24
2019-06-27T22:03:23.386Z,96.39
2019-06-27T22:05:51.661Z,97.14
2019-06-27T22:08:20.134Z,97.22
2019-06-27T22:10:48.449Z,97.57
2019-06-27T22:13:16.741Z,97.42
2019-06-27T22:15:45.054Z,97.38
2019-06-27T22:18:13.446Z,97.12
2019-06-27T22:20:41.970Z,97.41
2019-06-27T22:23:10.255Z,97.58
2019-06-27T22:25:40.850Z,97.75
2019-06-27T22:28:08.742Z,98.16
2019-06-27T22:30:37.064Z,98.08
2019-06-27T22:33:05.374Z,97.84
2019-06-27T22:35:33.739Z,98.36
2019-06-27T22:38:20.178Z,98.31
2019-06-27T22:41:06.599Z,98.58
2019-06-27T22:43:52.771Z,98.38
2019-06-27T22:46:39.061Z,98.33
2019-06-27T22:49:06.630Z,98.84
2019-06-27T22:51:52.932Z,98.20
2019-06-27T22:54:25.771Z,98.32
2019-06-27T22:56:54.047Z,98.86
2019-06-27T22:59:22.522Z,98.90
2019-06-27T23:01:50.958Z,99.33
2019-06-27T23:04:19.261Z,99.45
2019-06-27T23:06:47.588Z,99.48
2019-06-27T23:09:15.980Z,99.64
2019-06-27T23:11:44.260Z,99.79
2019-06-27T23:14:12.635Z,99.52
2019-06-27T23:16:41.060Z,99.80
2019-06-27T23:19:11.671Z,100.00
2019-06-27T23:21:39.493Z,99.92
2019-06-27T23:24:07.817Z,100.00
2019-06-27T23:26:36.111Z,100.00
2019-06-27T23:29:04.511Z,100.00
2019-06-27T23:31:32.877Z,100.00
2019-06-27T23:34:01.354Z,100.00
2019-06-27T23:36:29.925Z,100.00
2019-06-27T23:38:58.309Z,100.00
2019-06-27T23:41:26.661Z,100.00
2019-06-27T23:43:55.243Z,100.00
2019-06-27T23:46:40.430Z,100.00
2019-06-27T23:49:09.855Z,100.00
2019-06-27T23:51:38.153Z,100.00
2019-06-27T23:54:06.463Z,100.00
2019-06-27T23:56:35.007Z,100.00
2019-06-27T23:59:03.644Z,100.00
